Terminal Aerodrome Forecast
Issued by NWS Portland, ME

Home | Current Version | Previous Version | Text Only | Print | Product List | Glossary On
Versions: 1 2 3 4 5 6 7 8 9 10 11 12 13 14 15 16 17 18 19
000
FTUS41 KGYX 231722
TAFCON
TAF
KCON 231722Z 2318/2418 VRB03KT 2SM -FZRA BR OVC007 WS020/19040KT
      TEMPO 2319/2321 2SM -RA BR OVC007
     FM232100 VRB03KT 3SM -DZ BR OVC007
     FM240200 24007KT P6SM SCT120 BKN250=

USA.gov is the U.S. government's official web portal to all federal, state and local government web resources and services.